Time;durP1;ratioP1;P1;durP2;ratioP2;P2;SDS_P1;SDS_P2;PMS_P1;PMS_P2;Temp;Humidity;BMP_temperature;BMP_pressure;BME280_temperature;BME280_humidity;BME280_pressure;Samples;Min_cycle;Max_cycle;Signal;HPM_P1;HPM_P2
2022/12/25 00:01:21;;;;;;;27.83;8.65;;;;;;;6.44;100.00;101468.59;6249420;22;20091;-76
2022/12/25 00:03:49;;;;;;;34.33;8.95;;;;;;;6.47;100.00;101464.44;6250646;22;20021;-75
2022/12/25 00:06:16;;;;;;;21.52;8.77;;;;;;;6.48;100.00;101469.31;6250168;22;20052;-75
2022/12/25 00:08:43;;;;;;;23.42;8.15;;;;;;;6.53;100.00;101468.91;6250003;22;20439;-76
2022/12/25 00:11:12;;;;;;;31.63;9.15;;;;;;;6.55;100.00;101463.97;6248782;22;20473;-75
2022/12/25 00:13:39;;;;;;;31.92;8.20;;;;;;;6.57;100.00;101458.28;6250444;22;20071;-75
2022/12/25 00:16:13;;;;;;;28.40;9.10;;;;;;;6.59;100.00;101461.28;6198624;22;20524;-75
2022/12/25 00:18:40;;;;;;;25.38;8.85;;;;;;;6.61;100.00;101459.00;6250281;22;20012;-75
2022/12/25 00:21:06;;;;;;;30.05;8.35;;;;;;;6.63;100.00;101462.75;6249971;22;20036;-75
2022/12/25 00:23:34;;;;;;;21.58;8.63;;;;;;;6.65;100.00;101457.06;6250192;22;20173;-75
2022/12/25 00:26:11;;;;;;;25.88;9.07;;;;;;;6.66;100.00;101454.03;6249068;22;20016;-75
2022/12/25 00:28:38;;;;;;;20.55;8.15;;;;;;;6.68;100.00;101461.56;6250396;22;20450;-75
2022/12/25 00:31:13;;;;;;;32.72;9.13;;;;;;;6.71;100.00;101460.78;6250399;22;20027;-75
2022/12/25 00:33:42;;;;;;;32.65;9.77;;;;;;;6.73;100.00;101458.50;6250021;22;20037;-75
2022/12/25 00:36:10;;;;;;;21.10;8.75;;;;;;;6.73;100.00;101447.91;6249579;22;20021;-75
2022/12/25 00:38:38;;;;;;;29.50;8.95;;;;;;;6.74;100.00;101451.31;6249475;22;20136;-75
2022/12/25 00:41:06;;;;;;;18.38;8.55;;;;;;;6.77;100.00;101445.97;6250188;22;20012;-75
2022/12/25 00:43:33;;;;;;;26.65;8.77;;;;;;;6.81;100.00;101449.31;6250151;22;20092;-74
2022/12/25 00:46:02;;;;;;;27.52;7.93;;;;;;;6.83;100.00;101454.22;6250335;22;20024;-75
2022/12/25 00:48:30;;;;;;;23.38;7.97;;;;;;;6.84;100.00;101461.00;6249933;22;20083;-75
2022/12/25 00:51:00;;;;;;;21.45;8.00;;;;;;;6.88;100.00;101464.38;6249779;22;20443;-75
2022/12/25 00:53:27;;;;;;;31.05;8.35;;;;;;;6.89;100.00;101468.50;6250010;22;20021;-75
2022/12/25 00:55:56;;;;;;;29.38;8.80;;;;;;;6.91;100.00;101459.03;6250511;22;21115;-75
2022/12/25 00:58:24;;;;;;;22.90;8.13;;;;;;;6.93;100.00;101459.38;6250139;22;20477;-75
2022/12/25 01:00:51;;;;;;;31.27;8.65;;;;;;;6.94;100.00;101460.88;6250478;22;20016;-75
2022/12/25 01:03:18;;;;;;;22.30;7.85;;;;;;;6.97;100.00;101462.75;6249856;22;20446;-74
2022/12/25 01:06:11;;;;;;;24.55;8.75;;;;;;;7.01;100.00;101457.41;6250017;22;20036;-75
2022/12/25 01:11:25;;;;;;;20.00;7.80;;;;;;;7.05;100.00;101460.03;6250332;22;20036;-75
2022/12/25 01:13:51;;;;;;;27.17;8.27;;;;;;;7.07;100.00;101468.31;6248703;22;20083;-75
2022/12/25 01:16:18;;;;;;;24.77;7.60;;;;;;;7.10;100.00;101470.91;6223620;22;20021;-75
2022/12/25 01:18:45;;;;;;;23.08;7.50;;;;;;;7.12;100.00;101473.16;6249490;22;20024;-75
2022/12/25 01:21:16;;;;;;;22.00;7.85;;;;;;;7.14;100.00;101476.19;6249812;22;20063;-74
2022/12/25 01:23:43;;;;;;;22.35;7.82;;;;;;;7.15;100.00;101477.69;6249623;22;20429;-75
2022/12/25 01:26:12;;;;;;;26.42;7.88;;;;;;;7.16;100.00;101476.53;6250035;22;20079;-75
2022/12/25 01:28:39;;;;;;;22.83;7.95;;;;;;;7.17;100.00;101478.78;6249704;22;20444;-75
2022/12/25 01:31:10;;;;;;;21.95;7.40;;;;;;;7.20;100.00;101475.31;6197703;22;20535;-74
2022/12/25 01:33:38;;;;;;;29.52;7.75;;;;;;;7.22;100.00;101482.84;6248788;22;20099;-74
2022/12/25 01:36:16;;;;;;;24.85;7.65;;;;;;;7.23;100.00;101481.72;6249832;22;20021;-74
2022/12/25 01:38:42;;;;;;;21.45;7.75;;;;;;;7.25;100.00;101482.06;6249344;22;20013;-75
2022/12/25 01:41:10;;;;;;;29.10;8.52;;;;;;;7.25;100.00;101474.13;6197465;22;20044;-74
2022/12/25 01:44:05;;;;;;;20.17;8.70;;;;;;;7.27;100.00;101471.81;6249498;22;20017;-74
2022/12/25 01:46:32;;;;;;;17.23;7.20;;;;;;;7.26;100.00;101465.78;6249444;22;20072;-74
2022/12/25 01:49:07;;;;;;;23.55;7.72;;;;;;;7.26;100.00;101462.38;6250062;22;20013;-74
2022/12/25 01:51:48;;;;;;;21.35;7.30;;;;;;;7.26;100.00;101457.09;6250881;22;20016;-74
2022/12/25 01:54:19;;;;;;;26.67;8.38;;;;;;;7.26;100.00;101463.13;6251353;22;20020;-74
2022/12/25 01:56:48;;;;;;;23.60;7.88;;;;;;;7.28;100.00;101468.03;6224201;22;20079;-73
2022/12/25 01:59:18;;;;;;;24.35;7.47;;;;;;;7.27;100.00;101480.53;6251216;22;20418;-74
2022/12/25 02:01:45;;;;;;;29.65;8.38;;;;;;;7.26;100.00;101478.28;6250392;22;20019;-74
2022/12/25 02:04:23;;;;;;;26.58;8.00;;;;;;;7.26;100.00;101480.91;6251093;22;20017;-74
2022/12/25 02:06:52;;;;;;;24.88;8.23;;;;;;;7.25;100.00;101482.06;6251040;22;20023;-74
2022/12/25 02:09:18;;;;;;;22.30;7.90;;;;;;;7.23;100.00;101482.47;6251074;22;20044;-74
2022/12/25 02:11:58;;;;;;;20.98;7.82;;;;;;;7.21;100.00;101486.66;6250665;22;20036;-74
2022/12/25 02:14:28;;;;;;;18.30;7.60;;;;;;;7.16;100.00;101477.28;6250475;22;20013;-74
2022/12/25 02:17:26;;;;;;;19.67;7.85;;;;;;;7.14;100.00;101470.88;6249234;22;20469;-74
2022/12/25 02:20:14;;;;;;;22.08;8.65;;;;;;;7.11;100.00;101477.72;6248889;22;20017;-74
2022/12/25 02:23:06;;;;;;;17.38;7.50;;;;;;;7.06;100.00;101478.16;6250357;22;20418;-74
2022/12/25 02:25:46;;;;;;;21.15;7.88;;;;;;;7.03;100.00;101471.00;6250615;22;20067;-74
2022/12/25 02:28:32;;;;;;;22.98;7.60;;;;;;;7.01;100.00;101465.34;6223215;22;20028;-76
2022/12/25 02:31:11;;;;;;;14.18;7.70;;;;;;;6.97;100.00;101465.38;6250547;22;20040;-75
2022/12/25 02:34:13;;;;;;;16.33;7.40;;;;;;;6.98;100.00;101472.19;6250782;22;20092;-74
2022/12/25 02:36:51;;;;;;;21.98;7.63;;;;;;;6.99;100.00;101468.41;6224823;22;20020;-74
2022/12/25 02:42:20;;;;;;;17.27;7.60;;;;;;;6.98;100.00;101471.44;6251032;22;20021;-74
2022/12/25 03:07:20;;;;;;;19.15;8.45;;;;;;;7.09;100.00;101432.34;6127647;23;20029;-74
2022/12/25 03:12:57;;;;;;;19.73;7.82;;;;;;;7.12;100.00;101418.31;6127345;23;20027;-75
2022/12/25 03:18:14;;;;;;;24.92;7.47;;;;;;;7.14;100.00;101420.56;6127917;23;20051;-75
2022/12/25 03:29:01;;;;;;;19.88;8.05;;;;;;;7.27;100.00;101392.38;6222995;22;20016;-75
2022/12/25 03:31:50;;;;;;;20.67;7.78;;;;;;;7.30;100.00;101413.50;6249735;22;20020;-75
2022/12/25 04:36:28;;;;;;;26.50;7.70;;;;;;;7.22;100.00;101414.00;6127401;23;20429;-76
2022/12/25 04:38:55;;;;;;;12.35;7.32;;;;;;;7.18;100.00;101405.38;6127185;23;20018;-77
2022/12/25 04:41:21;;;;;;;13.25;7.55;;;;;;;7.16;100.00;101397.09;6126354;23;20472;-74
2022/12/25 04:43:48;;;;;;;15.23;6.90;;;;;;;7.14;100.00;101399.38;6127271;23;20401;-76
2022/12/25 04:46:14;;;;;;;17.20;7.18;;;;;;;7.13;100.00;101411.88;6127584;23;20050;-77
2022/12/25 04:48:41;;;;;;;16.48;7.20;;;;;;;7.10;100.00;101409.28;6220938;22;20016;-76
2022/12/25 04:51:16;;;;;;;17.58;7.57;;;;;;;7.10;100.00;101406.63;6250334;22;20441;-76
2022/12/25 04:53:43;;;;;;;14.25;6.47;;;;;;;7.08;100.00;101403.63;6223052;22;20086;-76
2022/12/25 04:56:10;;;;;;;15.10;7.00;;;;;;;7.07;100.00;101399.47;6222678;22;20071;-74
2022/12/25 04:58:37;;;;;;;12.05;6.10;;;;;;;7.06;100.00;101405.91;6249803;22;20013;-74
2022/12/25 05:01:04;;;;;;;12.05;6.55;;;;;;;7.06;100.00;101400.63;6250545;22;20025;-76
2022/12/25 05:03:31;;;;;;;20.25;6.80;;;;;;;7.05;100.00;101391.94;6250145;22;20443;-74
2022/12/25 05:05:58;;;;;;;10.65;6.45;;;;;;;7.02;100.00;101374.94;6250204;22;20064;-74
2022/12/25 05:08:26;;;;;;;16.65;6.60;;;;;;;7.03;100.00;101378.34;6250153;22;20361;-76
2022/12/25 05:10:53;;;;;;;14.40;6.95;;;;;;;7.02;100.00;101384.78;6249249;22;20031;-76
2022/12/25 05:13:19;;;;;;;13.07;6.72;;;;;;;7.00;100.00;101393.13;6250332;22;20024;-76
2022/12/25 05:15:46;;;;;;;14.18;6.68;;;;;;;6.99;100.00;101383.69;6249920;22;20023;-77
2022/12/25 05:18:13;;;;;;;15.15;6.30;;;;;;;6.97;100.00;101382.59;6250163;22;20433;-76
2022/12/25 05:20:39;;;;;;;12.80;6.43;;;;;;;6.95;100.00;101367.09;6249240;22;20021;-76
2022/12/25 05:23:09;;;;;;;13.98;6.80;;;;;;;6.97;100.00;101361.41;6250455;22;20021;-75
2022/12/25 05:25:38;;;;;;;10.73;5.80;;;;;;;6.96;100.00;101357.25;6250502;22;20017;-76
2022/12/25 05:28:06;;;;;;;16.40;6.47;;;;;;;6.95;100.00;101355.75;6251667;22;20051;-74
2022/12/25 05:30:33;;;;;;;15.43;6.47;;;;;;;6.94;100.00;101355.00;6251075;22;20017;-74
2022/12/25 05:33:00;;;;;;;14.10;6.03;;;;;;;6.95;100.00;101353.13;6251455;22;20399;-77
2022/12/25 05:35:27;;;;;;;10.65;5.68;;;;;;;6.93;100.00;101342.91;6251231;22;20067;-76
2022/12/25 05:37:53;;;;;;;12.52;6.00;;;;;;;6.92;100.00;101344.06;6251458;22;20019;-74
2022/12/25 05:40:20;;;;;;;12.85;5.93;;;;;;;6.94;100.00;101344.41;6250345;22;20023;-74
2022/12/25 05:42:46;;;;;;;13.02;6.20;;;;;;;6.94;100.00;101331.19;6250879;22;20465;-74
2022/12/25 05:45:13;;;;;;;15.40;6.38;;;;;;;6.94;100.00;101336.47;6251243;22;20406;-75
2022/12/25 05:47:39;;;;;;;10.55;6.00;;;;;;;6.94;100.00;101341.78;6250759;22;20046;-74
2022/12/25 05:50:07;;;;;;;10.32;6.45;;;;;;;6.93;100.00;101337.63;6251248;22;20017;-74
2022/12/25 05:52:33;;;;;;;10.23;6.00;;;;;;;6.93;100.00;101342.91;6250700;22;20016;-74
2022/12/25 05:55:00;;;;;;;11.27;5.78;;;;;;;6.92;100.00;101345.97;6250585;22;20027;-74
2022/12/25 05:57:28;;;;;;;16.42;6.10;;;;;;;6.93;100.00;101344.81;6250795;22;20016;-74
2022/12/25 05:59:55;;;;;;;12.38;6.20;;;;;;;6.93;100.00;101350.88;6251139;22;20016;-74
2022/12/25 06:02:22;;;;;;;10.77;5.88;;;;;;;6.95;100.00;101358.41;6251354;22;20017;-74
2022/12/25 06:04:49;;;;;;;14.60;6.43;;;;;;;6.95;100.00;101345.16;6250672;22;20439;-74
2022/12/25 06:07:15;;;;;;;12.10;6.28;;;;;;;6.96;100.00;101344.03;6251367;22;20131;-74
2022/12/25 06:09:42;;;;;;;12.52;5.80;;;;;;;6.98;100.00;101339.09;6250289;22;20028;-74
2022/12/25 06:12:08;;;;;;;16.60;6.25;;;;;;;6.98;100.00;101339.09;6250668;22;20040;-74
2022/12/25 06:14:35;;;;;;;13.35;5.95;;;;;;;6.99;100.00;101325.44;6250872;22;20106;-74
2022/12/25 06:17:04;;;;;;;15.68;6.03;;;;;;;6.99;100.00;101317.50;6251321;22;20017;-74
2022/12/25 06:19:30;;;;;;;12.95;5.55;;;;;;;7.00;100.00;101320.91;6250335;22;20016;-75
2022/12/25 06:21:57;;;;;;;12.35;5.82;;;;;;;7.00;100.00;101313.72;6250717;22;20036;-74
2022/12/25 06:24:24;;;;;;;10.30;5.35;;;;;;;7.02;100.00;101318.59;6250347;22;20017;-75
2022/12/25 06:26:50;;;;;;;9.27;5.57;;;;;;;7.02;100.00;101322.00;6250953;22;20129;-74
2022/12/25 06:29:17;;;;;;;9.70;5.30;;;;;;;7.06;100.00;101334.44;6251131;22;20021;-74
2022/12/25 06:31:44;;;;;;;12.80;4.93;;;;;;;7.08;100.00;101332.88;6250515;22;20059;-74
2022/12/25 06:34:10;;;;;;;9.73;5.53;;;;;;;7.10;100.00;101327.94;6250925;22;20044;-74
2022/12/25 06:36:37;;;;;;;17.38;5.78;;;;;;;7.12;100.00;101322.25;6250580;22;20013;-74
2022/12/25 06:39:03;;;;;;;9.40;5.05;;;;;;;7.14;100.00;101325.25;6250265;22;20048;-74
2022/12/25 06:41:30;;;;;;;8.23;5.05;;;;;;;7.15;100.00;101324.84;6250279;22;20088;-74
2022/12/25 06:44:00;;;;;;;11.43;5.50;;;;;;;7.16;100.00;101305.16;6251061;22;20033;-74
2022/12/25 06:46:28;;;;;;;7.82;4.57;;;;;;;7.17;100.00;101297.97;6248698;22;20092;-74
2022/12/25 06:48:56;;;;;;;9.05;5.18;;;;;;;7.19;100.00;101312.31;6250637;22;20051;-74
2022/12/25 06:51:25;;;;;;;7.40;4.72;;;;;;;7.21;100.00;101311.88;6250254;22;20021;-74
2022/12/25 06:53:52;;;;;;;8.90;4.82;;;;;;;7.22;100.00;101310.72;6251110;22;20013;-74
2022/12/25 06:56:22;;;;;;;7.57;4.85;;;;;;;7.24;100.00;101308.44;6250819;22;20013;-74
2022/12/25 06:58:57;;;;;;;7.55;4.53;;;;;;;7.25;100.00;101300.09;6250503;22;20429;-74
2022/12/25 07:01:29;;;;;;;8.82;4.85;;;;;;;7.26;100.00;101301.59;6223931;22;20470;-74
2022/12/25 07:03:58;;;;;;;10.25;4.75;;;;;;;7.27;100.00;101289.84;6251151;22;20088;-74
2022/12/25 07:06:25;;;;;;;7.80;4.65;;;;;;;7.28;100.00;101287.94;6250075;22;20047;-74
2022/12/25 07:08:52;;;;;;;12.00;5.10;;;;;;;7.30;100.00;101283.00;6251067;22;20079;-74
2022/12/25 07:11:19;;;;;;;10.60;4.53;;;;;;;7.31;100.00;101287.88;6250534;22;20027;-75
2022/12/25 07:13:45;;;;;;;5.75;4.35;;;;;;;7.32;100.00;101297.31;6250503;22;20079;-74
2022/12/25 07:16:12;;;;;;;10.25;5.10;;;;;;;7.33;100.00;101295.44;6251092;22;20478;-74
2022/12/25 07:18:40;;;;;;;9.98;4.68;;;;;;;7.33;100.00;101296.19;6250708;22;20021;-74
2022/12/25 07:21:18;;;;;;;5.10;4.20;;;;;;;7.36;100.00;101294.63;6249892;22;20017;-74
2022/12/25 07:23:46;;;;;;;9.32;4.50;;;;;;;7.36;100.00;101311.25;6250785;22;20477;-75
2022/12/25 07:26:14;;;;;;;7.97;4.43;;;;;;;7.38;100.00;101308.22;6249158;22;20012;-75
2022/12/25 07:28:41;;;;;;;11.32;4.72;;;;;;;7.38;100.00;101310.88;6250542;22;20023;-73
2022/12/25 07:31:13;;;;;;;7.05;4.43;;;;;;;7.39;100.00;101308.97;6250969;22;20019;-75
2022/12/25 07:33:40;;;;;;;16.80;4.57;;;;;;;7.40;100.00;101308.56;6250747;22;20439;-75
2022/12/25 07:36:08;;;;;;;11.82;4.63;;;;;;;7.42;100.00;101313.47;6222856;22;20013;-76
2022/12/25 07:38:39;;;;;;;7.88;4.70;;;;;;;7.42;100.00;101308.91;6250214;22;20100;-75
2022/12/25 07:41:09;;;;;;;7.22;4.80;;;;;;;7.43;100.00;101299.81;6250146;22;20023;-75
2022/12/25 07:43:36;;;;;;;9.35;4.90;;;;;;;7.43;100.00;101305.09;6250698;22;20088;-75
2022/12/25 07:46:03;;;;;;;6.57;4.65;;;;;;;7.44;100.00;101311.91;6250396;22;20012;-76
2022/12/25 07:48:30;;;;;;;6.07;4.30;;;;;;;7.45;100.00;101321.34;6250292;22;20051;-75
2022/12/25 07:51:02;;;;;;;7.50;4.47;;;;;;;7.45;100.00;101326.66;6248082;22;20024;-75
2022/12/25 07:53:29;;;;;;;7.57;4.70;;;;;;;7.46;100.00;101335.34;6250230;22;20465;-76
2022/12/25 07:56:01;;;;;;;7.20;4.32;;;;;;;7.47;100.00;101331.53;6249283;22;20433;-75
2022/12/25 07:58:29;;;;;;;5.90;4.35;;;;;;;7.47;100.00;101321.69;6250355;22;20427;-76
2022/12/25 08:01:02;;;;;;;8.82;4.60;;;;;;;7.47;100.00;101324.34;6250752;22;20067;-76
2022/12/25 08:03:28;;;;;;;9.40;4.72;;;;;;;7.48;100.00;101322.44;6223183;22;20074;-76
2022/12/25 08:06:00;;;;;;;7.13;4.50;;;;;;;7.49;100.00;101335.28;6222610;22;20020;-77
2022/12/25 08:08:27;;;;;;;6.07;4.18;;;;;;;7.49;100.00;101330.00;6223334;22;20359;-77
2022/12/25 08:10:53;;;;;;;6.85;4.70;;;;;;;7.48;100.00;101331.16;6248559;22;20020;-77
2022/12/25 08:13:20;;;;;;;9.60;4.35;;;;;;;7.50;100.00;101339.44;6250544;22;20016;-77
2022/12/25 08:15:47;;;;;;;6.57;4.25;;;;;;;7.51;100.00;101342.84;6223454;22;20072;-77
2022/12/25 08:18:14;;;;;;;8.35;4.30;;;;;;;7.51;100.00;101348.88;6222573;22;20021;-77
2022/12/25 08:20:40;;;;;;;6.78;4.35;;;;;;;7.52;100.00;101347.72;6250354;22;20013;-77
2022/12/25 08:23:07;;;;;;;6.10;4.45;;;;;;;7.53;100.00;101362.47;6250556;22;20013;-76
2022/12/25 08:25:33;;;;;;;6.47;4.22;;;;;;;7.55;100.00;101356.78;6250279;22;20080;-77
2022/12/25 08:28:00;;;;;;;12.18;4.68;;;;;;;7.55;100.00;101354.13;6250249;22;20099;-77
2022/12/25 08:30:27;;;;;;;6.40;4.45;;;;;;;7.56;100.00;101350.31;6223227;22;20040;-77
2022/12/25 08:32:54;;;;;;;6.43;4.03;;;;;;;7.56;100.00;101351.06;6250034;22;20027;-76
2022/12/25 08:35:21;;;;;;;6.55;4.18;;;;;;;7.58;100.00;101353.31;6250793;22;20016;-77
2022/12/25 08:37:47;;;;;;;5.85;4.22;;;;;;;7.56;100.00;101340.47;6249860;22;20484;-77
2022/12/25 08:40:14;;;;;;;9.40;4.43;;;;;;;7.56;100.00;101345.78;6249889;22;20016;-76
2022/12/25 08:42:40;;;;;;;8.10;4.50;;;;;;;7.59;100.00;101344.22;6250234;22;20013;-76
2022/12/25 08:45:08;;;;;;;7.95;4.72;;;;;;;7.58;100.00;101337.44;6224060;22;20013;-77
2022/12/25 08:47:34;;;;;;;15.23;4.90;;;;;;;7.58;100.00;101324.94;6250413;22;20020;-77
2022/12/25 08:50:01;;;;;;;7.07;4.40;;;;;;;7.60;100.00;101321.84;6250825;22;20013;-77
2022/12/25 08:52:28;;;;;;;4.93;4.15;;;;;;;7.60;100.00;101311.25;6250209;22;20020;-77
2022/12/25 08:54:55;;;;;;;5.15;4.22;;;;;;;7.62;100.00;101308.94;6249713;22;20447;-77
2022/12/25 08:57:21;;;;;;;6.93;4.28;;;;;;;7.63;100.00;101319.13;6249945;22;20016;-77
2022/12/25 08:59:48;;;;;;;6.45;4.28;;;;;;;7.65;100.00;101327.44;6224024;22;20017;-77
2022/12/25 09:02:16;;;;;;;9.75;5.40;;;;;;;7.66;100.00;101320.97;6251267;22;20008;-77
2022/12/25 09:04:45;;;;;;;8.35;5.35;;;;;;;7.67;100.00;101309.22;6252030;22;20493;-77
2022/12/25 09:07:12;;;;;;;11.88;6.50;;;;;;;7.69;100.00;101319.44;6251620;22;20029;-77
2022/12/25 09:09:39;;;;;;;8.15;5.47;;;;;;;7.69;100.00;101317.53;6252041;22;20016;-77
2022/12/25 09:12:05;;;;;;;10.63;6.10;;;;;;;7.71;100.00;101314.47;6252253;22;20025;-77
2022/12/25 09:14:32;;;;;;;9.95;5.65;;;;;;;7.73;100.00;101309.50;6225449;22;20485;-78
2022/12/25 09:16:58;;;;;;;13.63;8.48;;;;;;;7.75;100.00;101319.72;6224597;22;20417;-76
2022/12/25 09:19:25;;;;;;;19.33;11.48;;;;;;;7.76;100.00;101327.25;6252255;22;20410;-77
2022/12/25 09:21:52;;;;;;;14.45;9.85;;;;;;;7.78;100.00;101340.84;6225322;22;20023;-77
2022/12/25 09:24:19;;;;;;;20.65;12.55;;;;;;;7.78;100.00;101330.25;6251878;22;20087;-77
2022/12/25 09:26:46;;;;;;;11.38;8.90;;;;;;;7.81;100.00;101326.03;6252037;22;20020;-76
2022/12/25 09:29:13;;;;;;;26.08;15.07;;;;;;;7.82;100.00;101332.84;6252120;22;20063;-76
2022/12/25 09:31:40;;;;;;;12.90;7.80;;;;;;;7.82;100.00;101343.44;6224944;22;20023;-76
2022/12/25 09:34:08;;;;;;;14.05;6.47;;;;;;;7.83;100.00;101337.00;6250675;22;20024;-76
2022/12/25 09:36:40;;;;;;;10.55;7.57;;;;;;;7.85;100.00;101350.59;6252346;22;20075;-76
2022/12/25 09:39:07;;;;;;;10.50;8.02;;;;;;;7.84;100.00;101352.50;6251949;22;20013;-76
2022/12/25 09:42:00;;;;;;;10.77;6.22;;;;;;;7.85;100.00;101353.25;6225067;22;20039;-75
2022/12/25 09:44:31;;;;;;;12.98;6.65;;;;;;;7.85;100.00;101340.75;6245289;22;20016;-72
2022/12/25 09:47:05;;;;;;;12.63;4.68;;;;;;;7.85;100.00;101327.47;6250472;22;20017;-73
2022/12/25 09:49:43;;;;;;;8.50;4.55;;;;;;;7.87;100.00;101330.47;6252132;22;20099;-73
2022/12/25 09:52:21;;;;;;;7.53;5.28;;;;;;;7.89;100.00;101327.41;6251990;22;20026;-74
2022/12/25 09:55:02;;;;;;;5.97;5.25;;;;;;;7.91;100.00;101320.56;6252025;22;20044;-73
2022/12/25 09:57:28;;;;;;;8.00;5.28;;;;;;;7.93;100.00;101331.50;6251719;22;20478;-74
2022/12/25 09:59:55;;;;;;;5.75;4.97;;;;;;;7.94;100.00;101329.59;6251182;22;20092;-76
2022/12/25 10:02:32;;;;;;;9.75;5.07;;;;;;;7.95;100.00;101310.63;6251785;22;20050;-75
2022/12/25 10:05:18;;;;;;;8.48;4.90;;;;;;;7.96;100.00;101298.88;6251583;22;20032;-74
2022/12/25 10:08:13;;;;;;;8.07;4.50;;;;;;;7.95;100.00;101294.00;6251862;22;20017;-74
2022/12/25 10:10:48;;;;;;;7.32;4.57;;;;;;;7.97;100.00;101305.69;6251643;22;20067;-74
2022/12/25 10:13:25;;;;;;;8.80;4.93;;;;;;;7.97;100.00;101316.28;6251714;22;20494;-75
2022/12/25 10:16:27;;;;;;;5.72;4.53;;;;;;;7.97;100.00;101304.94;6249688;22;20016;-73
2022/12/25 10:19:06;;;;;;;12.23;4.43;;;;;;;7.97;100.00;101300.38;6224659;22;20498;-76
2022/12/25 10:21:33;;;;;;;6.55;4.55;;;;;;;7.97;100.00;101295.06;6251538;22;20019;-74
2022/12/25 10:24:27;;;;;;;7.07;4.57;;;;;;;7.98;100.00;101293.19;6224731;22;20013;-73
2022/12/25 10:26:55;;;;;;;4.95;4.50;;;;;;;8.00;100.00;101296.13;6250039;22;20016;-73
2022/12/25 10:29:21;;;;;;;7.82;4.90;;;;;;;8.00;100.00;101290.84;6216004;22;20020;-73
2022/12/25 10:31:51;;;;;;;5.78;4.60;;;;;;;8.02;100.00;101296.47;6251486;22;20048;-73
2022/12/25 10:34:18;;;;;;;8.02;4.72;;;;;;;8.03;100.00;101284.72;6251891;22;20079;-75
2022/12/25 10:36:45;;;;;;;4.78;4.30;;;;;;;8.05;100.00;101285.06;6251691;22;20041;-75
2022/12/25 10:39:17;;;;;;;7.40;4.82;;;;;;;8.06;100.00;101275.22;6251386;22;20534;-76
2022/12/25 10:42:12;;;;;;;5.68;4.28;;;;;;;8.08;100.00;101271.00;6251344;22;20075;-73
2022/12/25 10:44:38;;;;;;;7.68;5.43;;;;;;;8.11;100.00;101286.09;6250785;22;20063;-75
2022/12/25 10:47:05;;;;;;;18.30;8.98;;;;;;;8.13;100.00;101270.50;6252114;22;20079;-73
2022/12/25 10:49:36;;;;;;;14.32;6.80;;;;;;;8.15;100.00;101267.44;6224198;22;20025;-74
2022/12/25 10:52:18;;;;;;;5.97;5.40;;;;;;;8.14;100.00;101271.25;6251784;22;20052;-74
2022/12/25 10:54:45;;;;;;;12.60;5.47;;;;;;;8.13;100.00;101256.50;6251676;22;20048;-74
2022/12/25 10:57:15;;;;;;;9.68;5.75;;;;;;;8.13;100.00;101251.19;6251787;22;20414;-76
2022/12/25 10:59:44;;;;;;;6.30;5.53;;;;;;;8.12;100.00;101239.84;6251221;22;20023;-75
2022/12/25 11:02:26;;;;;;;6.78;6.07;;;;;;;8.14;100.00;101234.13;6251942;22;20028;-75
2022/12/25 11:05:09;;;;;;;10.18;5.78;;;;;;;8.14;100.00;101229.56;6253132;22;20419;-73
2022/12/25 11:07:49;;;;;;;6.68;5.80;;;;;;;8.18;100.00;101226.84;6251592;22;20068;-77
2022/12/25 11:10:24;;;;;;;9.85;5.93;;;;;;;8.22;100.00;101217.66;6251585;22;20414;-75
2022/12/25 11:12:51;;;;;;;8.38;5.95;;;;;;;8.23;100.00;101221.06;6249165;22;20031;-76
2022/12/25 11:15:41;;;;;;;7.20;5.57;;;;;;;8.22;100.00;101212.38;6251625;22;20443;-75
2022/12/25 11:18:19;;;;;;;8.23;6.05;;;;;;;8.23;100.00;101208.56;6251800;22;20012;-75
2022/12/25 11:20:58;;;;;;;11.85;6.10;;;;;;;8.24;100.00;101201.34;6250904;22;20027;-76
2022/12/25 11:23:26;;;;;;;8.57;6.00;;;;;;;8.26;100.00;101201.69;6251647;22;20016;-76
2022/12/25 11:26:02;;;;;;;9.38;6.65;;;;;;;8.30;100.00;101191.75;6251621;22;20019;-76
2022/12/25 11:28:31;;;;;;;8.52;6.63;;;;;;;8.29;100.00;101191.00;6251183;22;20016;-76
2022/12/25 11:31:04;;;;;;;11.90;7.25;;;;;;;8.32;100.00;101198.16;6251684;22;20016;-75
2022/12/25 11:33:51;;;;;;;10.77;7.30;;;;;;;8.35;100.00;101185.97;6251758;22;20021;-75
2022/12/25 11:36:30;;;;;;;6.75;6.05;;;;;;;8.39;100.00;101170.75;6251277;22;20012;-74
2022/12/25 11:39:13;;;;;;;8.50;6.25;;;;;;;8.40;100.00;101163.53;6251594;22;20017;-77
2022/12/25 11:41:40;;;;;;;9.23;6.55;;;;;;;8.41;100.00;101163.09;6250667;22;20451;-75
2022/12/25 11:44:21;;;;;;;7.93;5.95;;;;;;;8.46;100.00;101144.03;6251610;22;20017;-73
2022/12/25 11:46:50;;;;;;;7.25;4.80;;;;;;;8.51;100.00;101143.53;6251421;22;20012;-75
2022/12/25 11:49:20;;;;;;;9.27;5.05;;;;;;;8.54;100.00;101144.59;6251090;22;20144;-74
2022/12/25 11:51:50;;;;;;;10.05;5.53;;;;;;;8.56;100.00;101145.69;6251079;22;20455;-76
2022/12/25 11:54:32;;;;;;;6.65;6.00;;;;;;;8.59;100.00;101142.22;6251495;22;20023;-79
2022/12/25 11:57:03;;;;;;;10.30;6.05;;;;;;;8.61;100.00;101147.09;6223790;22;20012;-77
2022/12/25 11:59:37;;;;;;;13.20;7.07;;;;;;;8.62;100.00;101151.25;6224169;22;20095;-77
2022/12/25 12:02:41;;;;;;;9.38;7.05;;;;;;;8.59;100.00;101155.47;6251927;22;20454;-76
2022/12/25 12:05:20;;;;;;;9.15;6.05;;;;;;;8.58;100.00;101155.88;6251391;22;20421;-79
2022/12/25 12:07:58;;;;;;;10.23;7.05;;;;;;;8.56;100.00;101152.91;6251200;22;20019;-79
2022/12/25 12:11:14;;;;;;;6.97;5.63;;;;;;;8.59;100.00;101154.72;6250967;22;20016;-78
2022/12/25 12:13:53;;;;;;;10.35;6.40;;;;;;;8.59;100.00;101160.03;6251226;22;20021;-78
2022/12/25 12:16:19;;;;;;;12.38;7.28;;;;;;;8.62;100.00;101157.31;6251516;22;20019;-77
2022/12/25 12:18:46;;;;;;;11.27;8.10;;;;;;;8.64;100.00;101144.38;6251481;22;20093;-77
2022/12/25 12:21:29;;;;;;;11.20;8.10;;;;;;;8.66;100.00;101135.97;6224059;22;20020;-77
2022/12/25 12:24:08;;;;;;;11.25;6.60;;;;;;;8.66;100.00;101139.38;6251159;22;20079;-76
2022/12/25 12:26:39;;;;;;;6.10;5.47;;;;;;;8.65;100.00;101129.94;6247912;22;20451;-76
2022/12/25 12:29:20;;;;;;;6.40;5.63;;;;;;;8.67;100.00;101121.56;6222502;22;20367;-78
2022/12/25 12:31:49;;;;;;;7.57;5.83;;;;;;;8.67;100.00;101121.56;6249412;22;20016;-77
2022/12/25 12:34:36;;;;;;;6.20;5.55;;;;;;;8.69;100.00;101116.56;6251219;22;20031;-78
2022/12/25 12:37:15;;;;;;;8.00;5.72;;;;;;;8.68;100.00;101120.38;6250832;22;20021;-76
2022/12/25 12:39:52;;;;;;;9.65;5.85;;;;;;;8.67;100.00;101116.25;6250469;22;20021;-76
2022/12/25 12:42:24;;;;;;;8.18;6.63;;;;;;;8.66;100.00;101098.81;6251187;22;20046;-76
2022/12/25 12:44:54;;;;;;;8.02;6.95;;;;;;;8.65;100.00;101098.09;6249634;22;20020;-76
2022/12/25 12:47:43;;;;;;;8.77;6.05;;;;;;;8.64;100.00;101096.59;6251374;22;20107;-75
2022/12/25 12:50:28;;;;;;;9.00;5.82;;;;;;;8.65;100.00;101115.91;6251331;22;20013;-76
2022/12/25 12:52:55;;;;;;;7.88;6.40;;;;;;;8.64;100.00;101109.13;6250387;22;20096;-76
2022/12/25 12:55:30;;;;;;;10.02;6.40;;;;;;;8.64;100.00;101109.13;6250449;22;20837;-76
2022/12/25 12:57:59;;;;;;;9.50;6.25;;;;;;;8.62;100.00;101114.84;6250660;22;20013;-78
2022/12/25 13:00:35;;;;;;;8.23;7.03;;;;;;;8.63;100.00;101110.28;6251008;22;20364;-79
2022/12/25 13:03:08;;;;;;;10.05;7.65;;;;;;;8.60;100.00;101111.84;6249775;22;20389;-78
2022/12/25 13:05:53;;;;;;;8.35;6.80;;;;;;;8.58;100.00;101097.50;6250823;22;20513;-77
2022/12/25 13:08:48;;;;;;;7.53;6.72;;;;;;;8.58;100.00;101092.94;6250681;22;20016;-77
2022/12/25 13:11:23;;;;;;;7.65;6.60;;;;;;;8.56;100.00;101084.66;6250894;22;20087;-77
2022/12/25 13:13:52;;;;;;;9.35;7.90;;;;;;;8.55;100.00;101072.53;6248260;22;20025;-77
2022/12/25 13:16:25;;;;;;;11.30;8.65;;;;;;;8.56;100.00;101071.38;6249512;22;20072;-76
2022/12/25 13:18:55;;;;;;;12.70;8.65;;;;;;;8.56;100.00;101071.38;6250794;22;20412;-76
2022/12/25 13:21:27;;;;;;;10.65;9.18;;;;;;;8.58;100.00;101063.00;6223790;22;20020;-77
2022/12/25 13:24:02;;;;;;;8.55;7.65;;;;;;;8.57;100.00;101062.25;6249843;22;20473;-76